sensor_id;sensor_type;location;lat;lon;timestamp;P1;durP1;ratioP1;P2;durP2;ratioP2
16813;SDS011;8524;57.650;11.926;2022-09-03T00:01:08;0.80;;;0.80;;
16813;SDS011;8524;57.650;11.926;2022-09-03T00:03:39;1.10;;;1.00;;
16813;SDS011;8524;57.650;11.926;2022-09-03T00:06:11;0.88;;;0.88;;
16813;SDS011;8524;57.650;11.926;2022-09-03T00:08:44;0.80;;;0.80;;
16813;SDS011;8524;57.650;11.926;2022-09-03T00:11:18;0.80;;;0.80;;
16813;SDS011;8524;57.650;11.926;2022-09-03T00:13:48;0.70;;;0.70;;
16813;SDS011;8524;57.650;11.926;2022-09-03T00:16:23;0.70;;;0.70;;
16813;SDS011;8524;57.650;11.926;2022-09-03T00:18:55;1.10;;;1.00;;
16813;SDS011;8524;57.650;11.926;2022-09-03T00:21:29;1.00;;;1.00;;
16813;SDS011;8524;57.650;11.926;2022-09-03T00:24:03;1.30;;;0.83;;
16813;SDS011;8524;57.650;11.926;2022-09-03T00:26:35;1.10;;;1.00;;
16813;SDS011;8524;57.650;11.926;2022-09-03T00:29:05;0.80;;;0.80;;
16813;SDS011;8524;57.650;11.926;2022-09-03T00:31:37;1.60;;;0.80;;
16813;SDS011;8524;57.650;11.926;2022-09-03T00:34:09;1.00;;;0.90;;
16813;SDS011;8524;57.650;11.926;2022-09-03T00:36:41;0.90;;;0.90;;
16813;SDS011;8524;57.650;11.926;2022-09-03T00:39:12;0.80;;;0.80;;
16813;SDS011;8524;57.650;11.926;2022-09-03T00:41:43;0.97;;;0.97;;
16813;SDS011;8524;57.650;11.926;2022-09-03T00:44:30;0.90;;;0.90;;
16813;SDS011;8524;57.650;11.926;2022-09-03T00:47:12;1.83;;;1.00;;
16813;SDS011;8524;57.650;11.926;2022-09-03T00:49:51;0.80;;;0.80;;
16813;SDS011;8524;57.650;11.926;2022-09-03T00:52:32;1.30;;;1.00;;
16813;SDS011;8524;57.650;11.926;2022-09-03T00:55:11;1.00;;;0.90;;
16813;SDS011;8524;57.650;11.926;2022-09-03T00:57:52;0.90;;;0.90;;
16813;SDS011;8524;57.650;11.926;2022-09-03T01:00:30;2.35;;;1.20;;
16813;SDS011;8524;57.650;11.926;2022-09-03T01:03:00;0.80;;;0.80;;
16813;SDS011;8524;57.650;11.926;2022-09-03T01:05:52;1.17;;;1.07;;
16813;SDS011;8524;57.650;11.926;2022-09-03T01:08:33;1.00;;;1.00;;
16813;SDS011;8524;57.650;11.926;2022-09-03T01:11:19;1.00;;;1.00;;
16813;SDS011;8524;57.650;11.926;2022-09-03T01:13:54;0.80;;;0.80;;
16813;SDS011;8524;57.650;11.926;2022-09-03T01:16:29;1.00;;;0.90;;
16813;SDS011;8524;57.650;11.926;2022-09-03T01:19:00;0.87;;;0.87;;
16813;SDS011;8524;57.650;11.926;2022-09-03T01:21:50;1.03;;;0.90;;
16813;SDS011;8524;57.650;11.926;2022-09-03T01:24:38;1.20;;;1.10;;
16813;SDS011;8524;57.650;11.926;2022-09-03T01:27:23;1.43;;;0.90;;
16813;SDS011;8524;57.650;11.926;2022-09-03T01:30:05;1.08;;;1.00;;
16813;SDS011;8524;57.650;11.926;2022-09-03T01:32:37;0.90;;;0.90;;
16813;SDS011;8524;57.650;11.926;2022-09-03T01:35:10;0.90;;;0.90;;
16813;SDS011;8524;57.650;11.926;2022-09-03T01:37:46;1.30;;;1.20;;
16813;SDS011;8524;57.650;11.926;2022-09-03T01:40:22;2.10;;;1.00;;
16813;SDS011;8524;57.650;11.926;2022-09-03T01:43:05;0.90;;;0.90;;
16813;SDS011;8524;57.650;11.926;2022-09-03T01:45:48;1.47;;;1.00;;
16813;SDS011;8524;57.650;11.926;2022-09-03T01:48:26;1.07;;;0.97;;
16813;SDS011;8524;57.650;11.926;2022-09-03T01:51:04;1.10;;;1.00;;
16813;SDS011;8524;57.650;11.926;2022-09-03T01:53:42;1.10;;;0.93;;
16813;SDS011;8524;57.650;11.926;2022-09-03T01:56:26;1.13;;;1.00;;
16813;SDS011;8524;57.650;11.926;2022-09-03T01:59:00;1.10;;;1.00;;
16813;SDS011;8524;57.650;11.926;2022-09-03T02:01:34;1.53;;;1.20;;
16813;SDS011;8524;57.650;11.926;2022-09-03T02:04:13;1.07;;;1.00;;
16813;SDS011;8524;57.650;11.926;2022-09-03T02:06:42;1.00;;;1.00;;
16813;SDS011;8524;57.650;11.926;2022-09-03T02:09:12;1.10;;;1.00;;
16813;SDS011;8524;57.650;11.926;2022-09-03T02:11:39;1.63;;;1.10;;
16813;SDS011;8524;57.650;11.926;2022-09-03T02:14:07;1.80;;;1.20;;
16813;SDS011;8524;57.650;11.926;2022-09-03T02:16:36;0.98;;;0.98;;
16813;SDS011;8524;57.650;11.926;2022-09-03T02:19:03;2.17;;;1.10;;
16813;SDS011;8524;57.650;11.926;2022-09-03T02:21:35;1.17;;;0.90;;
16813;SDS011;8524;57.650;11.926;2022-09-03T02:24:06;1.20;;;1.10;;
16813;SDS011;8524;57.650;11.926;2022-09-03T02:26:34;1.17;;;0.97;;
16813;SDS011;8524;57.650;11.926;2022-09-03T02:29:02;0.90;;;0.90;;
16813;SDS011;8524;57.650;11.926;2022-09-03T02:31:29;1.10;;;1.10;;
16813;SDS011;8524;57.650;11.926;2022-09-03T02:33:58;1.07;;;0.97;;
16813;SDS011;8524;57.650;11.926;2022-09-03T02:36:26;1.10;;;1.00;;
16813;SDS011;8524;57.650;11.926;2022-09-03T02:38:57;0.97;;;0.97;;
16813;SDS011;8524;57.650;11.926;2022-09-03T02:41:24;1.35;;;0.80;;
16813;SDS011;8524;57.650;11.926;2022-09-03T02:43:53;1.00;;;0.90;;
16813;SDS011;8524;57.650;11.926;2022-09-03T02:46:24;1.00;;;0.90;;
16813;SDS011;8524;57.650;11.926;2022-09-03T02:48:59;0.97;;;0.90;;
16813;SDS011;8524;57.650;11.926;2022-09-03T02:51:30;1.00;;;0.90;;
16813;SDS011;8524;57.650;11.926;2022-09-03T02:53:58;1.10;;;0.90;;
16813;SDS011;8524;57.650;11.926;2022-09-03T02:56:25;1.73;;;0.87;;
16813;SDS011;8524;57.650;11.926;2022-09-03T02:58:52;0.90;;;0.90;;
16813;SDS011;8524;57.650;11.926;2022-09-03T03:01:19;2.27;;;1.10;;
16813;SDS011;8524;57.650;11.926;2022-09-03T03:03:46;0.97;;;0.93;;
16813;SDS011;8524;57.650;11.926;2022-09-03T03:06:14;0.80;;;0.80;;
16813;SDS011;8524;57.650;11.926;2022-09-03T03:08:44;0.90;;;0.90;;
16813;SDS011;8524;57.650;11.926;2022-09-03T03:11:12;0.90;;;0.90;;
16813;SDS011;8524;57.650;11.926;2022-09-03T03:13:42;1.20;;;1.10;;
16813;SDS011;8524;57.650;11.926;2022-09-03T03:16:10;0.90;;;0.90;;
16813;SDS011;8524;57.650;11.926;2022-09-03T03:18:38;1.63;;;1.10;;
16813;SDS011;8524;57.650;11.926;2022-09-03T03:21:05;1.63;;;1.00;;
16813;SDS011;8524;57.650;11.926;2022-09-03T03:23:35;1.20;;;1.10;;
16813;SDS011;8524;57.650;11.926;2022-09-03T03:26:02;1.73;;;1.00;;
16813;SDS011;8524;57.650;11.926;2022-09-03T03:28:30;1.00;;;1.00;;
16813;SDS011;8524;57.650;11.926;2022-09-03T03:30:58;1.50;;;1.20;;
16813;SDS011;8524;57.650;11.926;2022-09-03T03:33:30;1.03;;;0.80;;
16813;SDS011;8524;57.650;11.926;2022-09-03T03:35:57;1.40;;;1.00;;
16813;SDS011;8524;57.650;11.926;2022-09-03T03:38:24;1.43;;;0.83;;
16813;SDS011;8524;57.650;11.926;2022-09-03T03:40:53;1.47;;;1.00;;
16813;SDS011;8524;57.650;11.926;2022-09-03T03:43:19;0.93;;;0.90;;
16813;SDS011;8524;57.650;11.926;2022-09-03T03:45:54;1.03;;;0.93;;
16813;SDS011;8524;57.650;11.926;2022-09-03T03:48:22;0.95;;;0.95;;
16813;SDS011;8524;57.650;11.926;2022-09-03T03:50:49;1.90;;;0.80;;
16813;SDS011;8524;57.650;11.926;2022-09-03T03:53:16;1.20;;;1.00;;
16813;SDS011;8524;57.650;11.926;2022-09-03T03:55:43;0.97;;;0.87;;
16813;SDS011;8524;57.650;11.926;2022-09-03T03:58:21;1.05;;;0.93;;
16813;SDS011;8524;57.650;11.926;2022-09-03T04:00:49;1.03;;;0.97;;
16813;SDS011;8524;57.650;11.926;2022-09-03T04:03:16;0.90;;;0.90;;
16813;SDS011;8524;57.650;11.926;2022-09-03T04:05:51;0.90;;;0.90;;
16813;SDS011;8524;57.650;11.926;2022-09-03T04:08:20;1.23;;;1.00;;
16813;SDS011;8524;57.650;11.926;2022-09-03T04:10:47;1.77;;;1.10;;
16813;SDS011;8524;57.650;11.926;2022-09-03T04:13:15;0.70;;;0.70;;
16813;SDS011;8524;57.650;11.926;2022-09-03T04:15:42;2.35;;;2.15;;
16813;SDS011;8524;57.650;11.926;2022-09-03T04:18:09;2.27;;;1.87;;
16813;SDS011;8524;57.650;11.926;2022-09-03T04:20:36;0.90;;;0.90;;
16813;SDS011;8524;57.650;11.926;2022-09-03T04:23:04;0.90;;;0.90;;
16813;SDS011;8524;57.650;11.926;2022-09-03T04:25:31;2.13;;;0.90;;
16813;SDS011;8524;57.650;11.926;2022-09-03T04:27:58;1.10;;;1.00;;
16813;SDS011;8524;57.650;11.926;2022-09-03T04:30:30;0.80;;;0.80;;
16813;SDS011;8524;57.650;11.926;2022-09-03T04:32:56;1.00;;;0.90;;
16813;SDS011;8524;57.650;11.926;2022-09-03T04:35:25;1.30;;;0.70;;
16813;SDS011;8524;57.650;11.926;2022-09-03T04:37:56;0.90;;;0.90;;
16813;SDS011;8524;57.650;11.926;2022-09-03T04:40:23;0.97;;;0.97;;
16813;SDS011;8524;57.650;11.926;2022-09-03T04:42:50;1.00;;;0.90;;
16813;SDS011;8524;57.650;11.926;2022-09-03T04:45:22;0.90;;;0.80;;
16813;SDS011;8524;57.650;11.926;2022-09-03T04:47:56;1.07;;;1.00;;
16813;SDS011;8524;57.650;11.926;2022-09-03T04:50:24;0.97;;;0.90;;
16813;SDS011;8524;57.650;11.926;2022-09-03T04:52:52;0.90;;;0.90;;
16813;SDS011;8524;57.650;11.926;2022-09-03T04:55:20;0.90;;;0.90;;
16813;SDS011;8524;57.650;11.926;2022-09-03T04:57:47;1.40;;;0.90;;
16813;SDS011;8524;57.650;11.926;2022-09-03T05:00:14;0.97;;;0.80;;
16813;SDS011;8524;57.650;11.926;2022-09-03T05:02:42;1.20;;;1.00;;
16813;SDS011;8524;57.650;11.926;2022-09-03T05:05:12;1.00;;;0.90;;
16813;SDS011;8524;57.650;11.926;2022-09-03T05:07:40;0.80;;;0.80;;
16813;SDS011;8524;57.650;11.926;2022-09-03T05:10:08;1.27;;;1.10;;
16813;SDS011;8524;57.650;11.926;2022-09-03T05:12:37;1.03;;;0.93;;
16813;SDS011;8524;57.650;11.926;2022-09-03T05:15:04;1.10;;;1.00;;
16813;SDS011;8524;57.650;11.926;2022-09-03T05:17:32;0.80;;;0.80;;
16813;SDS011;8524;57.650;11.926;2022-09-03T05:19:59;1.53;;;0.93;;
16813;SDS011;8524;57.650;11.926;2022-09-03T05:22:27;0.93;;;0.73;;
16813;SDS011;8524;57.650;11.926;2022-09-03T05:24:54;1.37;;;0.80;;
16813;SDS011;8524;57.650;11.926;2022-09-03T05:27:21;0.70;;;0.70;;
16813;SDS011;8524;57.650;11.926;2022-09-03T05:29:48;0.97;;;0.90;;
16813;SDS011;8524;57.650;11.926;2022-09-03T05:32:15;0.90;;;0.80;;
16813;SDS011;8524;57.650;11.926;2022-09-03T05:34:42;0.80;;;0.80;;
16813;SDS011;8524;57.650;11.926;2022-09-03T05:37:09;0.80;;;0.80;;
16813;SDS011;8524;57.650;11.926;2022-09-03T05:39:38;1.37;;;1.00;;
16813;SDS011;8524;57.650;11.926;2022-09-03T05:42:05;0.73;;;0.73;;
16813;SDS011;8524;57.650;11.926;2022-09-03T05:44:32;0.90;;;0.80;;
16813;SDS011;8524;57.650;11.926;2022-09-03T05:47:00;0.80;;;0.80;;
16813;SDS011;8524;57.650;11.926;2022-09-03T05:49:27;2.20;;;0.90;;
16813;SDS011;8524;57.650;11.926;2022-09-03T05:51:54;0.60;;;0.60;;
16813;SDS011;8524;57.650;11.926;2022-09-03T05:54:21;0.97;;;0.70;;
16813;SDS011;8524;57.650;11.926;2022-09-03T05:56:50;0.97;;;0.80;;
16813;SDS011;8524;57.650;11.926;2022-09-03T05:59:17;0.70;;;0.70;;
16813;SDS011;8524;57.650;11.926;2022-09-03T06:01:44;0.70;;;0.60;;
16813;SDS011;8524;57.650;11.926;2022-09-03T06:04:13;0.63;;;0.57;;
16813;SDS011;8524;57.650;11.926;2022-09-03T06:06:41;0.70;;;0.70;;
16813;SDS011;8524;57.650;11.926;2022-09-03T06:09:10;0.70;;;0.70;;
16813;SDS011;8524;57.650;11.926;2022-09-03T06:11:39;1.03;;;0.60;;
16813;SDS011;8524;57.650;11.926;2022-09-03T06:14:09;1.33;;;0.63;;
16813;SDS011;8524;57.650;11.926;2022-09-03T06:16:37;1.70;;;0.73;;
16813;SDS011;8524;57.650;11.926;2022-09-03T06:19:06;0.60;;;0.60;;
16813;SDS011;8524;57.650;11.926;2022-09-03T06:21:35;0.63;;;0.63;;
16813;SDS011;8524;57.650;11.926;2022-09-03T06:24:04;0.93;;;0.80;;
16813;SDS011;8524;57.650;11.926;2022-09-03T06:26:31;1.00;;;0.70;;
16813;SDS011;8524;57.650;11.926;2022-09-03T06:28:58;0.80;;;0.77;;
16813;SDS011;8524;57.650;11.926;2022-09-03T06:31:27;0.80;;;0.60;;
16813;SDS011;8524;57.650;11.926;2022-09-03T06:33:54;0.80;;;0.73;;
16813;SDS011;8524;57.650;11.926;2022-09-03T06:36:21;0.60;;;0.60;;
16813;SDS011;8524;57.650;11.926;2022-09-03T06:38:51;0.60;;;0.60;;
16813;SDS011;8524;57.650;11.926;2022-09-03T06:41:19;0.70;;;0.63;;
16813;SDS011;8524;57.650;11.926;2022-09-03T06:43:49;0.60;;;0.60;;
16813;SDS011;8524;57.650;11.926;2022-09-03T06:46:18;0.60;;;0.60;;
16813;SDS011;8524;57.650;11.926;2022-09-03T06:48:48;0.60;;;0.60;;
16813;SDS011;8524;57.650;11.926;2022-09-03T06:51:17;0.60;;;0.60;;
16813;SDS011;8524;57.650;11.926;2022-09-03T06:53:45;0.90;;;0.60;;
16813;SDS011;8524;57.650;11.926;2022-09-03T06:56:15;0.70;;;0.70;;
16813;SDS011;8524;57.650;11.926;2022-09-03T06:58:44;1.57;;;0.60;;
16813;SDS011;8524;57.650;11.926;2022-09-03T07:01:13;0.60;;;0.57;;
16813;SDS011;8524;57.650;11.926;2022-09-03T07:03:41;0.60;;;0.60;;
16813;SDS011;8524;57.650;11.926;2022-09-03T07:06:11;0.60;;;0.57;;
16813;SDS011;8524;57.650;11.926;2022-09-03T07:08:39;0.60;;;0.60;;
16813;SDS011;8524;57.650;11.926;2022-09-03T07:11:07;1.37;;;0.67;;
16813;SDS011;8524;57.650;11.926;2022-09-03T07:13:36;0.93;;;0.70;;
16813;SDS011;8524;57.650;11.926;2022-09-03T07:16:05;0.57;;;0.50;;
16813;SDS011;8524;57.650;11.926;2022-09-03T07:18:33;0.90;;;0.50;;
16813;SDS011;8524;57.650;11.926;2022-09-03T07:21:02;1.27;;;0.53;;
16813;SDS011;8524;57.650;11.926;2022-09-03T07:23:31;1.57;;;0.70;;
16813;SDS011;8524;57.650;11.926;2022-09-03T07:26:00;0.87;;;0.57;;
16813;SDS011;8524;57.650;11.926;2022-09-03T07:28:29;0.60;;;0.60;;
16813;SDS011;8524;57.650;11.926;2022-09-03T07:30:59;0.60;;;0.60;;
16813;SDS011;8524;57.650;11.926;2022-09-03T07:33:28;1.17;;;0.60;;
16813;SDS011;8524;57.650;11.926;2022-09-03T07:35:55;0.60;;;0.60;;
16813;SDS011;8524;57.650;11.926;2022-09-03T07:38:27;0.53;;;0.50;;
16813;SDS011;8524;57.650;11.926;2022-09-03T07:40:57;0.40;;;0.40;;
16813;SDS011;8524;57.650;11.926;2022-09-03T07:43:25;0.60;;;0.60;;
16813;SDS011;8524;57.650;11.926;2022-09-03T07:45:53;1.10;;;0.67;;
16813;SDS011;8524;57.650;11.926;2022-09-03T07:48:21;0.85;;;0.60;;
16813;SDS011;8524;57.650;11.926;2022-09-03T07:50:48;0.40;;;0.40;;
16813;SDS011;8524;57.650;11.926;2022-09-03T07:53:15;0.77;;;0.63;;
16813;SDS011;8524;57.650;11.926;2022-09-03T07:55:44;0.67;;;0.53;;
16813;SDS011;8524;57.650;11.926;2022-09-03T07:58:14;0.80;;;0.60;;
16813;SDS011;8524;57.650;11.926;2022-09-03T08:00:42;0.50;;;0.50;;
16813;SDS011;8524;57.650;11.926;2022-09-03T08:03:09;0.40;;;0.40;;
16813;SDS011;8524;57.650;11.926;2022-09-03T08:05:36;0.50;;;0.50;;
16813;SDS011;8524;57.650;11.926;2022-09-03T08:08:03;0.50;;;0.50;;
16813;SDS011;8524;57.650;11.926;2022-09-03T08:10:33;0.60;;;0.53;;
16813;SDS011;8524;57.650;11.926;2022-09-03T08:13:02;0.50;;;0.50;;
16813;SDS011;8524;57.650;11.926;2022-09-03T08:15:31;0.73;;;0.57;;
16813;SDS011;8524;57.650;11.926;2022-09-03T08:17:58;0.70;;;0.53;;
16813;SDS011;8524;57.650;11.926;2022-09-03T08:20:25;0.43;;;0.43;;
16813;SDS011;8524;57.650;11.926;2022-09-03T08:22:59;0.60;;;0.55;;
16813;SDS011;8524;57.650;11.926;2022-09-03T08:25:26;0.73;;;0.70;;
16813;SDS011;8524;57.650;11.926;2022-09-03T08:27:56;1.80;;;0.57;;
16813;SDS011;8524;57.650;11.926;2022-09-03T08:30:23;0.52;;;0.50;;
16813;SDS011;8524;57.650;11.926;2022-09-03T08:32:53;0.63;;;0.50;;
16813;SDS011;8524;57.650;11.926;2022-09-03T08:35:21;0.63;;;0.40;;
16813;SDS011;8524;57.650;11.926;2022-09-03T08:37:48;0.53;;;0.40;;
16813;SDS011;8524;57.650;11.926;2022-09-03T08:40:18;0.63;;;0.50;;
16813;SDS011;8524;57.650;11.926;2022-09-03T08:42:52;0.60;;;0.50;;
16813;SDS011;8524;57.650;11.926;2022-09-03T08:45:30;0.65;;;0.55;;
16813;SDS011;8524;57.650;11.926;2022-09-03T08:48:02;1.00;;;0.60;;
16813;SDS011;8524;57.650;11.926;2022-09-03T08:50:37;0.97;;;0.60;;
16813;SDS011;8524;57.650;11.926;2022-09-03T08:53:07;1.63;;;0.50;;
16813;SDS011;8524;57.650;11.926;2022-09-03T08:55:42;0.50;;;0.40;;
16813;SDS011;8524;57.650;11.926;2022-09-03T08:58:15;1.60;;;0.63;;
16813;SDS011;8524;57.650;11.926;2022-09-03T09:00:48;1.45;;;0.55;;
16813;SDS011;8524;57.650;11.926;2022-09-03T09:03:25;0.60;;;0.60;;
16813;SDS011;8524;57.650;11.926;2022-09-03T09:06:03;0.50;;;0.50;;
16813;SDS011;8524;57.650;11.926;2022-09-03T09:08:38;0.77;;;0.50;;
16813;SDS011;8524;57.650;11.926;2022-09-03T09:11:15;1.23;;;0.70;;
16813;SDS011;8524;57.650;11.926;2022-09-03T09:13:52;0.45;;;0.45;;
16813;SDS011;8524;57.650;11.926;2022-09-03T09:16:26;0.50;;;0.50;;
16813;SDS011;8524;57.650;11.926;2022-09-03T09:19:05;0.80;;;0.57;;
16813;SDS011;8524;57.650;11.926;2022-09-03T09:21:41;0.82;;;0.60;;
16813;SDS011;8524;57.650;11.926;2022-09-03T09:24:18;0.83;;;0.57;;
16813;SDS011;8524;57.650;11.926;2022-09-03T09:26:48;1.43;;;0.77;;
16813;SDS011;8524;57.650;11.926;2022-09-03T09:29:20;0.67;;;0.60;;
16813;SDS011;8524;57.650;11.926;2022-09-03T09:31:47;0.60;;;0.40;;
16813;SDS011;8524;57.650;11.926;2022-09-03T09:34:16;0.50;;;0.50;;
16813;SDS011;8524;57.650;11.926;2022-09-03T09:36:44;0.60;;;0.40;;
16813;SDS011;8524;57.650;11.926;2022-09-03T09:39:14;0.93;;;0.50;;
16813;SDS011;8524;57.650;11.926;2022-09-03T09:41:41;0.90;;;0.50;;
16813;SDS011;8524;57.650;11.926;2022-09-03T09:44:17;0.50;;;0.50;;
16813;SDS011;8524;57.650;11.926;2022-09-03T09:46:45;0.60;;;0.60;;
16813;SDS011;8524;57.650;11.926;2022-09-03T09:49:28;0.63;;;0.60;;
16813;SDS011;8524;57.650;11.926;2022-09-03T09:52:00;0.87;;;0.30;;
16813;SDS011;8524;57.650;11.926;2022-09-03T09:54:29;1.07;;;0.70;;
16813;SDS011;8524;57.650;11.926;2022-09-03T09:57:00;1.60;;;0.67;;
16813;SDS011;8524;57.650;11.926;2022-09-03T09:59:30;0.80;;;0.50;;
16813;SDS011;8524;57.650;11.926;2022-09-03T10:02:08;0.40;;;0.40;;
16813;SDS011;8524;57.650;11.926;2022-09-03T10:04:38;0.50;;;0.50;;
16813;SDS011;8524;57.650;11.926;2022-09-03T10:07:15;0.50;;;0.43;;
16813;SDS011;8524;57.650;11.926;2022-09-03T10:10:01;1.10;;;0.50;;
16813;SDS011;8524;57.650;11.926;2022-09-03T10:12:32;0.77;;;0.60;;
16813;SDS011;8524;57.650;11.926;2022-09-03T10:15:10;0.50;;;0.40;;
16813;SDS011;8524;57.650;11.926;2022-09-03T10:17:51;0.70;;;0.70;;
16813;SDS011;8524;57.650;11.926;2022-09-03T10:20:25;0.93;;;0.60;;
16813;SDS011;8524;57.650;11.926;2022-09-03T10:22:59;0.95;;;0.60;;
16813;SDS011;8524;57.650;11.926;2022-09-03T10:25:34;0.80;;;0.60;;
16813;SDS011;8524;57.650;11.926;2022-09-03T10:28:06;0.70;;;0.50;;
16813;SDS011;8524;57.650;11.926;2022-09-03T10:30:38;1.40;;;0.60;;
16813;SDS011;8524;57.650;11.926;2022-09-03T10:33:21;0.60;;;0.60;;
16813;SDS011;8524;57.650;11.926;2022-09-03T10:35:56;0.63;;;0.50;;
16813;SDS011;8524;57.650;11.926;2022-09-03T10:38:31;0.70;;;0.60;;
16813;SDS011;8524;57.650;11.926;2022-09-03T10:41:03;1.87;;;0.70;;
16813;SDS011;8524;57.650;11.926;2022-09-03T10:43:53;0.70;;;0.60;;
16813;SDS011;8524;57.650;11.926;2022-09-03T10:46:50;0.80;;;0.60;;
16813;SDS011;8524;57.650;11.926;2022-09-03T10:49:31;1.17;;;0.50;;
16813;SDS011;8524;57.650;11.926;2022-09-03T10:52:12;0.60;;;0.60;;
16813;SDS011;8524;57.650;11.926;2022-09-03T10:54:48;1.20;;;0.60;;
16813;SDS011;8524;57.650;11.926;2022-09-03T10:57:29;0.50;;;0.50;;
16813;SDS011;8524;57.650;11.926;2022-09-03T11:00:08;0.57;;;0.57;;
16813;SDS011;8524;57.650;11.926;2022-09-03T11:02:51;3.33;;;2.40;;
16813;SDS011;8524;57.650;11.926;2022-09-03T11:05:39;0.60;;;0.60;;
16813;SDS011;8524;57.650;11.926;2022-09-03T11:08:15;0.67;;;0.63;;
16813;SDS011;8524;57.650;11.926;2022-09-03T11:10:47;0.60;;;0.60;;
16813;SDS011;8524;57.650;11.926;2022-09-03T11:13:19;2.10;;;0.60;;
16813;SDS011;8524;57.650;11.926;2022-09-03T11:15:51;0.90;;;0.77;;
16813;SDS011;8524;57.650;11.926;2022-09-03T11:18:23;0.60;;;0.50;;
16813;SDS011;8524;57.650;11.926;2022-09-03T11:20:54;0.60;;;0.55;;
16813;SDS011;8524;57.650;11.926;2022-09-03T11:23:27;0.53;;;0.50;;
16813;SDS011;8524;57.650;11.926;2022-09-03T11:25:58;1.10;;;0.60;;
16813;SDS011;8524;57.650;11.926;2022-09-03T11:28:32;0.57;;;0.57;;
16813;SDS011;8524;57.650;11.926;2022-09-03T11:31:16;0.97;;;0.60;;
16813;SDS011;8524;57.650;11.926;2022-09-03T11:33:49;0.70;;;0.50;;
16813;SDS011;8524;57.650;11.926;2022-09-03T11:36:25;0.80;;;0.60;;
16813;SDS011;8524;57.650;11.926;2022-09-03T11:38:56;0.60;;;0.57;;
16813;SDS011;8524;57.650;11.926;2022-09-03T11:41:25;0.97;;;0.57;;
16813;SDS011;8524;57.650;11.926;2022-09-03T11:43:53;0.93;;;0.63;;
16813;SDS011;8524;57.650;11.926;2022-09-03T11:46:27;1.00;;;0.70;;
16813;SDS011;8524;57.650;11.926;2022-09-03T11:48:56;1.70;;;0.50;;
16813;SDS011;8524;57.650;11.926;2022-09-03T11:51:36;1.07;;;0.33;;
16813;SDS011;8524;57.650;11.926;2022-09-03T11:54:22;1.03;;;0.60;;
16813;SDS011;8524;57.650;11.926;2022-09-03T11:57:02;1.27;;;0.50;;
16813;SDS011;8524;57.650;11.926;2022-09-03T11:59:38;1.17;;;0.70;;
16813;SDS011;8524;57.650;11.926;2022-09-03T12:02:14;0.70;;;0.43;;
16813;SDS011;8524;57.650;11.926;2022-09-03T12:04:58;0.93;;;0.60;;
16813;SDS011;8524;57.650;11.926;2022-09-03T12:07:45;0.80;;;0.60;;
16813;SDS011;8524;57.650;11.926;2022-09-03T12:10:36;1.23;;;0.40;;
16813;SDS011;8524;57.650;11.926;2022-09-03T12:13:15;0.87;;;0.73;;
16813;SDS011;8524;57.650;11.926;2022-09-03T12:19:05;1.57;;;0.67;;
16813;SDS011;8524;57.650;11.926;2022-09-03T12:21:37;0.80;;;0.50;;
16813;SDS011;8524;57.650;11.926;2022-09-03T12:24:05;0.50;;;0.50;;
16813;SDS011;8524;57.650;11.926;2022-09-03T12:26:39;0.40;;;0.40;;
16813;SDS011;8524;57.650;11.926;2022-09-03T12:29:19;0.90;;;0.57;;
16813;SDS011;8524;57.650;11.926;2022-09-03T12:31:48;0.50;;;0.50;;
16813;SDS011;8524;57.650;11.926;2022-09-03T12:34:16;1.70;;;0.50;;
16813;SDS011;8524;57.650;11.926;2022-09-03T12:36:46;0.65;;;0.60;;
16813;SDS011;8524;57.650;11.926;2022-09-03T12:39:15;0.73;;;0.50;;
16813;SDS011;8524;57.650;11.926;2022-09-03T12:44:36;0.60;;;0.60;;
16813;SDS011;8524;57.650;11.926;2022-09-03T12:47:06;1.10;;;0.70;;
16813;SDS011;8524;57.650;11.926;2022-09-03T12:49:37;0.97;;;0.67;;
16813;SDS011;8524;57.650;11.926;2022-09-03T12:52:07;2.33;;;0.70;;
16813;SDS011;8524;57.650;11.926;2022-09-03T12:54:42;0.70;;;0.50;;
16813;SDS011;8524;57.650;11.926;2022-09-03T12:57:18;0.63;;;0.50;;
16813;SDS011;8524;57.650;11.926;2022-09-03T12:59:48;0.98;;;0.60;;
16813;SDS011;8524;57.650;11.926;2022-09-03T13:02:19;0.90;;;0.60;;
16813;SDS011;8524;57.650;11.926;2022-09-03T13:04:49;1.10;;;0.70;;
16813;SDS011;8524;57.650;11.926;2022-09-03T13:07:20;0.97;;;0.60;;
16813;SDS011;8524;57.650;11.926;2022-09-03T13:09:50;1.23;;;0.50;;
16813;SDS011;8524;57.650;11.926;2022-09-03T13:12:27;0.63;;;0.50;;
16813;SDS011;8524;57.650;11.926;2022-09-03T13:14:56;0.60;;;0.50;;
16813;SDS011;8524;57.650;11.926;2022-09-03T13:17:25;1.55;;;0.70;;
16813;SDS011;8524;57.650;11.926;2022-09-03T13:20:16;1.20;;;0.60;;
16813;SDS011;8524;57.650;11.926;2022-09-03T13:23:00;0.67;;;0.60;;
16813;SDS011;8524;57.650;11.926;2022-09-03T13:25:36;1.00;;;0.60;;
16813;SDS011;8524;57.650;11.926;2022-09-03T13:28:18;0.50;;;0.50;;
16813;SDS011;8524;57.650;11.926;2022-09-03T13:30:53;0.60;;;0.50;;
16813;SDS011;8524;57.650;11.926;2022-09-03T13:33:24;0.83;;;0.50;;
16813;SDS011;8524;57.650;11.926;2022-09-03T13:35:59;0.70;;;0.70;;
16813;SDS011;8524;57.650;11.926;2022-09-03T13:38:30;0.88;;;0.40;;
16813;SDS011;8524;57.650;11.926;2022-09-03T13:41:05;0.60;;;0.50;;
16813;SDS011;8524;57.650;11.926;2022-09-03T13:43:45;0.93;;;0.50;;
16813;SDS011;8524;57.650;11.926;2022-09-03T13:46:20;0.90;;;0.50;;
16813;SDS011;8524;57.650;11.926;2022-09-03T13:48:55;0.40;;;0.40;;
16813;SDS011;8524;57.650;11.926;2022-09-03T13:51:46;0.90;;;0.60;;
16813;SDS011;8524;57.650;11.926;2022-09-03T13:54:18;1.20;;;0.70;;
16813;SDS011;8524;57.650;11.926;2022-09-03T13:56:52;0.40;;;0.40;;
16813;SDS011;8524;57.650;11.926;2022-09-03T13:59:26;0.70;;;0.55;;
16813;SDS011;8524;57.650;11.926;2022-09-03T14:02:04;0.80;;;0.53;;
16813;SDS011;8524;57.650;11.926;2022-09-03T14:04:43;0.80;;;0.70;;
16813;SDS011;8524;57.650;11.926;2022-09-03T14:07:21;0.77;;;0.67;;
16813;SDS011;8524;57.650;11.926;2022-09-03T14:09:55;0.67;;;0.67;;
16813;SDS011;8524;57.650;11.926;2022-09-03T14:12:33;0.40;;;0.40;;
16813;SDS011;8524;57.650;11.926;2022-09-03T14:15:14;0.43;;;0.40;;
16813;SDS011;8524;57.650;11.926;2022-09-03T14:17:46;1.23;;;0.50;;
16813;SDS011;8524;57.650;11.926;2022-09-03T14:20:20;0.68;;;0.50;;
16813;SDS011;8524;57.650;11.926;2022-09-03T14:22:51;0.50;;;0.50;;
16813;SDS011;8524;57.650;11.926;2022-09-03T14:25:22;0.65;;;0.52;;
16813;SDS011;8524;57.650;11.926;2022-09-03T14:27:51;0.90;;;0.80;;
16813;SDS011;8524;57.650;11.926;2022-09-03T14:30:30;0.83;;;0.60;;
16813;SDS011;8524;57.650;11.926;2022-09-03T14:33:07;0.60;;;0.60;;
16813;SDS011;8524;57.650;11.926;2022-09-03T14:35:52;0.60;;;0.60;;
16813;SDS011;8524;57.650;11.926;2022-09-03T14:38:35;0.70;;;0.70;;
16813;SDS011;8524;57.650;11.926;2022-09-03T14:41:29;0.50;;;0.50;;
16813;SDS011;8524;57.650;11.926;2022-09-03T14:47:14;0.70;;;0.40;;
16813;SDS011;8524;57.650;11.926;2022-09-03T14:50:06;0.73;;;0.70;;
16813;SDS011;8524;57.650;11.926;2022-09-03T14:52:53;1.17;;;0.60;;
16813;SDS011;8524;57.650;11.926;2022-09-03T14:55:47;1.13;;;0.70;;
16813;SDS011;8524;57.650;11.926;2022-09-03T14:58:39;1.53;;;0.60;;
16813;SDS011;8524;57.650;11.926;2022-09-03T15:01:14;0.50;;;0.50;;
16813;SDS011;8524;57.650;11.926;2022-09-03T15:07:01;0.80;;;0.70;;
16813;SDS011;8524;57.650;11.926;2022-09-03T15:09:41;0.73;;;0.70;;
16813;SDS011;8524;57.650;11.926;2022-09-03T15:12:17;1.13;;;0.50;;
16813;SDS011;8524;57.650;11.926;2022-09-03T15:14:49;0.50;;;0.50;;
16813;SDS011;8524;57.650;11.926;2022-09-03T15:17:30;1.00;;;0.50;;
16813;SDS011;8524;57.650;11.926;2022-09-03T15:20:13;0.90;;;0.50;;
16813;SDS011;8524;57.650;11.926;2022-09-03T15:25:40;1.47;;;0.50;;
16813;SDS011;8524;57.650;11.926;2022-09-03T15:28:24;1.77;;;0.70;;
16813;SDS011;8524;57.650;11.926;2022-09-03T15:31:00;0.60;;;0.60;;
16813;SDS011;8524;57.650;11.926;2022-09-03T15:33:32;0.63;;;0.63;;
16813;SDS011;8524;57.650;11.926;2022-09-03T15:36:10;0.90;;;0.70;;